sensor_id;sensor_type;location;lat;lon;timestamp;P1;durP1;ratioP1;P2;durP2;ratioP2
10767;SDS011;5436;51.162;4.162;2022-08-24T00:00:22;4.43;;;1.90;;
10767;SDS011;5436;51.162;4.162;2022-08-24T00:02:51;2.90;;;2.23;;
10767;SDS011;5436;51.162;4.162;2022-08-24T00:05:23;4.27;;;2.30;;
10767;SDS011;5436;51.162;4.162;2022-08-24T00:07:52;4.07;;;2.60;;
10767;SDS011;5436;51.162;4.162;2022-08-24T00:10:21;5.87;;;2.40;;
10767;SDS011;5436;51.162;4.162;2022-08-24T00:12:50;4.13;;;2.50;;
10767;SDS011;5436;51.162;4.162;2022-08-24T00:15:19;2.70;;;2.50;;
10767;SDS011;5436;51.162;4.162;2022-08-24T00:17:48;7.17;;;3.23;;
10767;SDS011;5436;51.162;4.162;2022-08-24T00:20:18;4.60;;;2.83;;
10767;SDS011;5436;51.162;4.162;2022-08-24T00:22:50;5.50;;;3.23;;
10767;SDS011;5436;51.162;4.162;2022-08-24T00:25:19;4.33;;;2.97;;
10767;SDS011;5436;51.162;4.162;2022-08-24T00:27:48;5.73;;;3.50;;
10767;SDS011;5436;51.162;4.162;2022-08-24T00:30:17;4.13;;;3.23;;
10767;SDS011;5436;51.162;4.162;2022-08-24T00:32:47;7.67;;;3.43;;
10767;SDS011;5436;51.162;4.162;2022-08-24T00:35:18;6.87;;;3.57;;
10767;SDS011;5436;51.162;4.162;2022-08-24T00:37:51;5.10;;;3.40;;
10767;SDS011;5436;51.162;4.162;2022-08-24T00:40:22;6.33;;;2.97;;
10767;SDS011;5436;51.162;4.162;2022-08-24T00:42:54;4.87;;;3.50;;
10767;SDS011;5436;51.162;4.162;2022-08-24T00:45:25;5.00;;;3.43;;
10767;SDS011;5436;51.162;4.162;2022-08-24T00:47:56;6.93;;;3.63;;
10767;SDS011;5436;51.162;4.162;2022-08-24T00:50:30;4.40;;;3.57;;
10767;SDS011;5436;51.162;4.162;2022-08-24T00:53:07;4.70;;;3.40;;
10767;SDS011;5436;51.162;4.162;2022-08-24T00:55:40;4.37;;;3.30;;
10767;SDS011;5436;51.162;4.162;2022-08-24T00:58:13;4.07;;;3.30;;
10767;SDS011;5436;51.162;4.162;2022-08-24T01:00:47;5.07;;;3.50;;
10767;SDS011;5436;51.162;4.162;2022-08-24T01:03:20;7.30;;;3.93;;
10767;SDS011;5436;51.162;4.162;2022-08-24T01:05:50;5.40;;;3.60;;
10767;SDS011;5436;51.162;4.162;2022-08-24T01:08:23;6.80;;;3.23;;
10767;SDS011;5436;51.162;4.162;2022-08-24T01:10:53;4.10;;;3.57;;
10767;SDS011;5436;51.162;4.162;2022-08-24T01:13:25;4.37;;;3.43;;
10767;SDS011;5436;51.162;4.162;2022-08-24T01:15:57;4.53;;;3.20;;
10767;SDS011;5436;51.162;4.162;2022-08-24T01:18:29;5.60;;;3.37;;
10767;SDS011;5436;51.162;4.162;2022-08-24T01:21:14;4.77;;;3.40;;
10767;SDS011;5436;51.162;4.162;2022-08-24T01:23:48;5.63;;;3.20;;
10767;SDS011;5436;51.162;4.162;2022-08-24T01:26:20;4.73;;;3.33;;
10767;SDS011;5436;51.162;4.162;2022-08-24T01:28:54;7.00;;;3.10;;
10767;SDS011;5436;51.162;4.162;2022-08-24T01:31:25;5.03;;;3.60;;
10767;SDS011;5436;51.162;4.162;2022-08-24T01:33:54;5.00;;;3.77;;
10767;SDS011;5436;51.162;4.162;2022-08-24T01:36:26;8.23;;;4.07;;
10767;SDS011;5436;51.162;4.162;2022-08-24T01:39:03;4.23;;;3.50;;
10767;SDS011;5436;51.162;4.162;2022-08-24T01:41:36;6.00;;;3.80;;
10767;SDS011;5436;51.162;4.162;2022-08-24T01:44:05;4.30;;;3.70;;
10767;SDS011;5436;51.162;4.162;2022-08-24T01:46:35;7.73;;;4.07;;
10767;SDS011;5436;51.162;4.162;2022-08-24T01:49:04;7.47;;;3.80;;
10767;SDS011;5436;51.162;4.162;2022-08-24T01:51:33;7.77;;;3.80;;
10767;SDS011;5436;51.162;4.162;2022-08-24T01:54:05;7.43;;;3.83;;
10767;SDS011;5436;51.162;4.162;2022-08-24T01:56:35;6.60;;;3.80;;
10767;SDS011;5436;51.162;4.162;2022-08-24T01:59:04;7.97;;;3.83;;
10767;SDS011;5436;51.162;4.162;2022-08-24T02:01:34;10.03;;;4.40;;
10767;SDS011;5436;51.162;4.162;2022-08-24T02:04:05;4.97;;;3.70;;
10767;SDS011;5436;51.162;4.162;2022-08-24T02:06:36;5.83;;;3.90;;
10767;SDS011;5436;51.162;4.162;2022-08-24T02:09:10;5.67;;;3.80;;
10767;SDS011;5436;51.162;4.162;2022-08-24T02:11:40;6.60;;;4.43;;
10767;SDS011;5436;51.162;4.162;2022-08-24T02:14:11;5.43;;;3.40;;
10767;SDS011;5436;51.162;4.162;2022-08-24T02:16:40;5.13;;;3.50;;
10767;SDS011;5436;51.162;4.162;2022-08-24T02:19:10;5.43;;;3.80;;
10767;SDS011;5436;51.162;4.162;2022-08-24T02:21:39;7.90;;;4.27;;
10767;SDS011;5436;51.162;4.162;2022-08-24T02:24:10;7.73;;;4.40;;
10767;SDS011;5436;51.162;4.162;2022-08-24T02:26:39;8.43;;;4.40;;
10767;SDS011;5436;51.162;4.162;2022-08-24T02:29:08;6.57;;;4.10;;
10767;SDS011;5436;51.162;4.162;2022-08-24T02:31:37;6.40;;;4.00;;
10767;SDS011;5436;51.162;4.162;2022-08-24T02:34:06;5.60;;;4.00;;
10767;SDS011;5436;51.162;4.162;2022-08-24T02:36:35;6.07;;;4.27;;
10767;SDS011;5436;51.162;4.162;2022-08-24T02:39:05;6.43;;;3.97;;
10767;SDS011;5436;51.162;4.162;2022-08-24T02:41:40;7.93;;;4.03;;
10767;SDS011;5436;51.162;4.162;2022-08-24T02:44:08;6.73;;;4.50;;
10767;SDS011;5436;51.162;4.162;2022-08-24T02:46:37;8.37;;;4.87;;
10767;SDS011;5436;51.162;4.162;2022-08-24T02:49:07;7.17;;;4.47;;
10767;SDS011;5436;51.162;4.162;2022-08-24T02:51:38;8.40;;;4.50;;
10767;SDS011;5436;51.162;4.162;2022-08-24T02:54:08;6.57;;;4.80;;
10767;SDS011;5436;51.162;4.162;2022-08-24T02:56:40;6.63;;;4.63;;
10767;SDS011;5436;51.162;4.162;2022-08-24T02:59:09;7.03;;;4.80;;
10767;SDS011;5436;51.162;4.162;2022-08-24T03:01:39;5.90;;;4.63;;
10767;SDS011;5436;51.162;4.162;2022-08-24T03:04:08;8.37;;;4.20;;
10767;SDS011;5436;51.162;4.162;2022-08-24T03:06:38;7.83;;;4.90;;
10767;SDS011;5436;51.162;4.162;2022-08-24T03:09:08;7.13;;;4.40;;
10767;SDS011;5436;51.162;4.162;2022-08-24T03:11:41;6.90;;;4.57;;
10767;SDS011;5436;51.162;4.162;2022-08-24T03:14:10;7.93;;;4.50;;
10767;SDS011;5436;51.162;4.162;2022-08-24T03:16:39;8.20;;;4.97;;
10767;SDS011;5436;51.162;4.162;2022-08-24T03:19:08;8.13;;;4.70;;
10767;SDS011;5436;51.162;4.162;2022-08-24T03:21:38;7.90;;;5.00;;
10767;SDS011;5436;51.162;4.162;2022-08-24T03:24:07;7.47;;;5.03;;
10767;SDS011;5436;51.162;4.162;2022-08-24T03:26:37;8.00;;;5.03;;
10767;SDS011;5436;51.162;4.162;2022-08-24T03:29:11;7.63;;;4.83;;
10767;SDS011;5436;51.162;4.162;2022-08-24T03:31:40;7.50;;;5.13;;
10767;SDS011;5436;51.162;4.162;2022-08-24T03:34:09;6.43;;;5.00;;
10767;SDS011;5436;51.162;4.162;2022-08-24T03:36:39;6.73;;;5.17;;
10767;SDS011;5436;51.162;4.162;2022-08-24T03:39:11;8.53;;;5.83;;
10767;SDS011;5436;51.162;4.162;2022-08-24T03:41:40;10.10;;;6.10;;
10767;SDS011;5436;51.162;4.162;2022-08-24T03:44:12;9.20;;;5.83;;
10767;SDS011;5436;51.162;4.162;2022-08-24T03:46:41;10.17;;;5.47;;
10767;SDS011;5436;51.162;4.162;2022-08-24T03:49:11;9.83;;;5.90;;
10767;SDS011;5436;51.162;4.162;2022-08-24T03:51:40;9.53;;;5.23;;
10767;SDS011;5436;51.162;4.162;2022-08-24T03:54:10;7.23;;;5.23;;
10767;SDS011;5436;51.162;4.162;2022-08-24T03:56:40;7.77;;;5.50;;
10767;SDS011;5436;51.162;4.162;2022-08-24T03:59:14;8.30;;;5.07;;
10767;SDS011;5436;51.162;4.162;2022-08-24T04:01:43;13.47;;;6.23;;
10767;SDS011;5436;51.162;4.162;2022-08-24T04:04:13;7.57;;;5.33;;
10767;SDS011;5436;51.162;4.162;2022-08-24T04:06:42;6.87;;;5.33;;
10767;SDS011;5436;51.162;4.162;2022-08-24T04:09:13;8.43;;;5.53;;
10767;SDS011;5436;51.162;4.162;2022-08-24T04:11:45;8.77;;;6.07;;
10767;SDS011;5436;51.162;4.162;2022-08-24T04:14:17;8.23;;;5.67;;
10767;SDS011;5436;51.162;4.162;2022-08-24T04:16:50;10.27;;;6.23;;
10767;SDS011;5436;51.162;4.162;2022-08-24T04:19:25;8.13;;;5.63;;
10767;SDS011;5436;51.162;4.162;2022-08-24T04:21:56;8.93;;;6.30;;
10767;SDS011;5436;51.162;4.162;2022-08-24T04:24:25;10.33;;;6.30;;
10767;SDS011;5436;51.162;4.162;2022-08-24T04:26:55;10.33;;;6.73;;
10767;SDS011;5436;51.162;4.162;2022-08-24T04:29:28;9.77;;;6.37;;
10767;SDS011;5436;51.162;4.162;2022-08-24T04:31:56;11.80;;;6.47;;
10767;SDS011;5436;51.162;4.162;2022-08-24T04:34:25;12.40;;;7.60;;
10767;SDS011;5436;51.162;4.162;2022-08-24T04:36:56;9.57;;;6.77;;
10767;SDS011;5436;51.162;4.162;2022-08-24T04:39:26;12.83;;;7.03;;
10767;SDS011;5436;51.162;4.162;2022-08-24T04:42:21;12.53;;;8.50;;
10767;SDS011;5436;51.162;4.162;2022-08-24T04:44:53;11.63;;;8.00;;
10767;SDS011;5436;51.162;4.162;2022-08-24T04:47:22;12.47;;;7.40;;
10767;SDS011;5436;51.162;4.162;2022-08-24T04:49:51;10.43;;;7.63;;
10767;SDS011;5436;51.162;4.162;2022-08-24T04:52:21;12.07;;;7.77;;
10767;SDS011;5436;51.162;4.162;2022-08-24T04:54:50;11.43;;;7.50;;
10767;SDS011;5436;51.162;4.162;2022-08-24T04:57:21;11.60;;;8.30;;
10767;SDS011;5436;51.162;4.162;2022-08-24T04:59:56;10.77;;;7.97;;
10767;SDS011;5436;51.162;4.162;2022-08-24T05:02:25;13.33;;;8.33;;
10767;SDS011;5436;51.162;4.162;2022-08-24T05:04:55;12.50;;;7.83;;
10767;SDS011;5436;51.162;4.162;2022-08-24T05:07:25;15.90;;;9.30;;
10767;SDS011;5436;51.162;4.162;2022-08-24T05:09:55;13.90;;;8.33;;
10767;SDS011;5436;51.162;4.162;2022-08-24T05:12:24;12.03;;;7.83;;
10767;SDS011;5436;51.162;4.162;2022-08-24T05:15:02;11.67;;;8.10;;
10767;SDS011;5436;51.162;4.162;2022-08-24T05:17:38;13.83;;;7.53;;
10767;SDS011;5436;51.162;4.162;2022-08-24T05:20:08;16.73;;;8.13;;
10767;SDS011;5436;51.162;4.162;2022-08-24T05:22:38;13.07;;;7.73;;
10767;SDS011;5436;51.162;4.162;2022-08-24T05:25:08;11.97;;;7.03;;
10767;SDS011;5436;51.162;4.162;2022-08-24T05:27:37;10.47;;;7.57;;
10767;SDS011;5436;51.162;4.162;2022-08-24T05:30:09;12.97;;;7.30;;
10767;SDS011;5436;51.162;4.162;2022-08-24T05:32:39;11.30;;;6.57;;
10767;SDS011;5436;51.162;4.162;2022-08-24T05:35:08;11.70;;;7.93;;
10767;SDS011;5436;51.162;4.162;2022-08-24T05:37:38;11.97;;;7.13;;
10767;SDS011;5436;51.162;4.162;2022-08-24T05:40:17;10.90;;;6.77;;
10767;SDS011;5436;51.162;4.162;2022-08-24T05:42:52;11.40;;;7.40;;
10767;SDS011;5436;51.162;4.162;2022-08-24T05:45:24;12.27;;;7.07;;
10767;SDS011;5436;51.162;4.162;2022-08-24T05:47:53;13.40;;;8.53;;
10767;SDS011;5436;51.162;4.162;2022-08-24T05:50:40;13.43;;;7.53;;
10767;SDS011;5436;51.162;4.162;2022-08-24T05:53:11;13.10;;;7.67;;
10767;SDS011;5436;51.162;4.162;2022-08-24T05:55:43;15.23;;;8.30;;
10767;SDS011;5436;51.162;4.162;2022-08-24T05:58:14;15.33;;;8.07;;
10767;SDS011;5436;51.162;4.162;2022-08-24T06:00:46;14.60;;;7.87;;
10767;SDS011;5436;51.162;4.162;2022-08-24T06:03:15;13.60;;;7.53;;
10767;SDS011;5436;51.162;4.162;2022-08-24T06:05:48;11.77;;;6.63;;
10767;SDS011;5436;51.162;4.162;2022-08-24T06:08:21;13.17;;;8.17;;
10767;SDS011;5436;51.162;4.162;2022-08-24T06:10:49;10.40;;;7.50;;
10767;SDS011;5436;51.162;4.162;2022-08-24T06:13:18;9.63;;;7.10;;
10767;SDS011;5436;51.162;4.162;2022-08-24T06:15:57;12.77;;;7.77;;
10767;SDS011;5436;51.162;4.162;2022-08-24T06:18:30;12.03;;;7.33;;
10767;SDS011;5436;51.162;4.162;2022-08-24T06:21:03;12.47;;;8.07;;
10767;SDS011;5436;51.162;4.162;2022-08-24T06:23:34;13.03;;;8.33;;
10767;SDS011;5436;51.162;4.162;2022-08-24T06:26:03;16.93;;;9.60;;
10767;SDS011;5436;51.162;4.162;2022-08-24T06:28:46;15.57;;;9.10;;
10767;SDS011;5436;51.162;4.162;2022-08-24T06:31:18;16.57;;;8.10;;
10767;SDS011;5436;51.162;4.162;2022-08-24T06:33:51;16.27;;;8.60;;
10767;SDS011;5436;51.162;4.162;2022-08-24T06:36:25;13.37;;;9.07;;
10767;SDS011;5436;51.162;4.162;2022-08-24T06:38:55;16.40;;;9.77;;
10767;SDS011;5436;51.162;4.162;2022-08-24T06:41:24;16.87;;;10.17;;
10767;SDS011;5436;51.162;4.162;2022-08-24T06:43:54;19.33;;;11.10;;
10767;SDS011;5436;51.162;4.162;2022-08-24T06:46:29;19.53;;;11.47;;
10767;SDS011;5436;51.162;4.162;2022-08-24T06:49:00;19.27;;;11.63;;
10767;SDS011;5436;51.162;4.162;2022-08-24T06:51:33;16.93;;;11.70;;
10767;SDS011;5436;51.162;4.162;2022-08-24T06:57:03;19.63;;;11.07;;
10767;SDS011;5436;51.162;4.162;2022-08-24T06:59:35;16.33;;;11.03;;
10767;SDS011;5436;51.162;4.162;2022-08-24T07:02:08;16.67;;;10.83;;
10767;SDS011;5436;51.162;4.162;2022-08-24T07:04:44;20.43;;;10.13;;
10767;SDS011;5436;51.162;4.162;2022-08-24T07:07:32;17.90;;;9.97;;
10767;SDS011;5436;51.162;4.162;2022-08-24T07:10:01;19.00;;;11.63;;
10767;SDS011;5436;51.162;4.162;2022-08-24T07:15:05;17.57;;;11.20;;
10767;SDS011;5436;51.162;4.162;2022-08-24T07:17:37;26.33;;;12.70;;
10767;SDS011;5436;51.162;4.162;2022-08-24T07:20:06;19.73;;;12.93;;
10767;SDS011;5436;51.162;4.162;2022-08-24T07:23:06;19.30;;;12.60;;
10767;SDS011;5436;51.162;4.162;2022-08-24T07:25:40;18.67;;;12.20;;
10767;SDS011;5436;51.162;4.162;2022-08-24T07:28:10;20.33;;;11.97;;
10767;SDS011;5436;51.162;4.162;2022-08-24T07:30:44;21.33;;;11.73;;
10767;SDS011;5436;51.162;4.162;2022-08-24T07:33:17;22.83;;;11.67;;
10767;SDS011;5436;51.162;4.162;2022-08-24T07:35:49;21.77;;;12.63;;
10767;SDS011;5436;51.162;4.162;2022-08-24T07:38:18;24.23;;;13.10;;
10767;SDS011;5436;51.162;4.162;2022-08-24T07:40:47;17.77;;;11.83;;
10767;SDS011;5436;51.162;4.162;2022-08-24T07:43:17;18.03;;;10.77;;
10767;SDS011;5436;51.162;4.162;2022-08-24T07:45:50;16.23;;;9.87;;
10767;SDS011;5436;51.162;4.162;2022-08-24T07:48:25;14.40;;;8.93;;
10767;SDS011;5436;51.162;4.162;2022-08-24T07:51:05;13.37;;;8.20;;
10767;SDS011;5436;51.162;4.162;2022-08-24T07:53:34;15.63;;;9.60;;
10767;SDS011;5436;51.162;4.162;2022-08-24T07:56:06;14.23;;;8.10;;
10767;SDS011;5436;51.162;4.162;2022-08-24T07:58:40;7.97;;;5.80;;
10767;SDS011;5436;51.162;4.162;2022-08-24T08:01:09;11.60;;;7.27;;
10767;SDS011;5436;51.162;4.162;2022-08-24T08:03:41;12.67;;;8.73;;
10767;SDS011;5436;51.162;4.162;2022-08-24T08:06:10;8.33;;;6.30;;
10767;SDS011;5436;51.162;4.162;2022-08-24T08:08:39;12.80;;;7.97;;
10767;SDS011;5436;51.162;4.162;2022-08-24T08:11:09;12.63;;;8.47;;
10767;SDS011;5436;51.162;4.162;2022-08-24T08:13:42;14.03;;;8.67;;
10767;SDS011;5436;51.162;4.162;2022-08-24T08:16:13;12.97;;;8.60;;
10767;SDS011;5436;51.162;4.162;2022-08-24T08:18:49;14.43;;;8.37;;
10767;SDS011;5436;51.162;4.162;2022-08-24T08:21:18;13.13;;;8.83;;
10767;SDS011;5436;51.162;4.162;2022-08-24T08:24:01;9.00;;;6.77;;
10767;SDS011;5436;51.162;4.162;2022-08-24T08:26:48;11.50;;;7.17;;
10767;SDS011;5436;51.162;4.162;2022-08-24T08:29:44;11.73;;;7.97;;
10767;SDS011;5436;51.162;4.162;2022-08-24T08:32:14;10.27;;;7.40;;
10767;SDS011;5436;51.162;4.162;2022-08-24T08:34:49;6.27;;;4.40;;
10767;SDS011;5436;51.162;4.162;2022-08-24T08:37:19;6.50;;;3.50;;
10767;SDS011;5436;51.162;4.162;2022-08-24T08:39:50;4.73;;;2.57;;
10767;SDS011;5436;51.162;4.162;2022-08-24T08:42:32;5.37;;;3.80;;
10767;SDS011;5436;51.162;4.162;2022-08-24T08:45:21;5.03;;;4.00;;
10767;SDS011;5436;51.162;4.162;2022-08-24T08:54:52;4.80;;;3.37;;
10767;SDS011;5436;51.162;4.162;2022-08-24T09:00:26;8.27;;;5.05;;
10767;SDS011;5436;51.162;4.162;2022-08-24T09:12:34;5.55;;;4.20;;
10767;SDS011;5436;51.162;4.162;2022-08-24T09:15:28;8.18;;;4.32;;
10767;SDS011;5436;51.162;4.162;2022-08-24T09:18:16;7.85;;;3.95;;
10767;SDS011;5436;51.162;4.162;2022-08-24T09:23:47;6.70;;;3.20;;
10767;SDS011;5436;51.162;4.162;2022-08-24T09:26:26;7.35;;;3.72;;
10767;SDS011;5436;51.162;4.162;2022-08-24T09:29:02;5.43;;;2.70;;
10767;SDS011;5436;51.162;4.162;2022-08-24T09:31:52;3.83;;;2.83;;
10767;SDS011;5436;51.162;4.162;2022-08-24T09:34:38;4.45;;;3.10;;
10767;SDS011;5436;51.162;4.162;2022-08-24T09:37:23;4.72;;;3.40;;
10767;SDS011;5436;51.162;4.162;2022-08-24T09:40:01;6.13;;;3.50;;
10767;SDS011;5436;51.162;4.162;2022-08-24T09:48:53;8.00;;;4.80;;
10767;SDS011;5436;51.162;4.162;2022-08-24T09:51:53;7.55;;;4.72;;
10767;SDS011;5436;51.162;4.162;2022-08-24T09:57:55;6.72;;;4.85;;
10767;SDS011;5436;51.162;4.162;2022-08-24T10:00:32;4.78;;;3.58;;
10767;SDS011;5436;51.162;4.162;2022-08-24T10:03:20;6.93;;;4.18;;
10767;SDS011;5436;51.162;4.162;2022-08-24T10:06:02;4.28;;;3.88;;
10767;SDS011;5436;51.162;4.162;2022-08-24T10:08:43;5.88;;;4.20;;
10767;SDS011;5436;51.162;4.162;2022-08-24T10:11:34;4.75;;;4.35;;
10767;SDS011;5436;51.162;4.162;2022-08-24T10:14:15;4.53;;;3.60;;
10767;SDS011;5436;51.162;4.162;2022-08-24T10:16:54;4.78;;;3.45;;
10767;SDS011;5436;51.162;4.162;2022-08-24T10:19:45;3.20;;;2.47;;
10767;SDS011;5436;51.162;4.162;2022-08-24T10:22:31;5.28;;;2.80;;
10767;SDS011;5436;51.162;4.162;2022-08-24T10:25:21;4.35;;;2.83;;
10767;SDS011;5436;51.162;4.162;2022-08-24T10:28:05;3.22;;;2.50;;
10767;SDS011;5436;51.162;4.162;2022-08-24T10:31:00;3.97;;;2.80;;
10767;SDS011;5436;51.162;4.162;2022-08-24T10:33:34;4.68;;;2.38;;
10767;SDS011;5436;51.162;4.162;2022-08-24T10:39:21;3.20;;;2.30;;
10767;SDS011;5436;51.162;4.162;2022-08-24T10:42:15;3.35;;;2.25;;
10767;SDS011;5436;51.162;4.162;2022-08-24T10:45:23;5.88;;;2.30;;
10767;SDS011;5436;51.162;4.162;2022-08-24T10:48:13;4.22;;;2.40;;
10767;SDS011;5436;51.162;4.162;2022-08-24T10:50:57;3.17;;;2.40;;
10767;SDS011;5436;51.162;4.162;2022-08-24T10:53:32;4.05;;;2.00;;
10767;SDS011;5436;51.162;4.162;2022-08-24T10:56:09;2.15;;;1.95;;
10767;SDS011;5436;51.162;4.162;2022-08-24T10:58:47;2.75;;;2.03;;
10767;SDS011;5436;51.162;4.162;2022-08-24T11:01:23;3.05;;;2.30;;
10767;SDS011;5436;51.162;4.162;2022-08-24T11:04:03;4.45;;;2.47;;
10767;SDS011;5436;51.162;4.162;2022-08-24T11:06:35;2.28;;;1.90;;
10767;SDS011;5436;51.162;4.162;2022-08-24T11:09:13;4.13;;;1.80;;
10767;SDS011;5436;51.162;4.162;2022-08-24T11:11:47;3.17;;;1.83;;
10767;SDS011;5436;51.162;4.162;2022-08-24T11:14:24;3.10;;;2.47;;
10767;SDS011;5436;51.162;4.162;2022-08-24T11:17:13;3.08;;;1.85;;
10767;SDS011;5436;51.162;4.162;2022-08-24T11:19:44;4.65;;;2.28;;
10767;SDS011;5436;51.162;4.162;2022-08-24T11:22:26;3.45;;;2.05;;
10767;SDS011;5436;51.162;4.162;2022-08-24T11:25:03;3.25;;;2.10;;
10767;SDS011;5436;51.162;4.162;2022-08-24T11:27:50;3.72;;;2.20;;
10767;SDS011;5436;51.162;4.162;2022-08-24T11:30:25;2.50;;;1.80;;
10767;SDS011;5436;51.162;4.162;2022-08-24T11:32:59;1.90;;;1.70;;
10767;SDS011;5436;51.162;4.162;2022-08-24T11:35:34;1.88;;;1.63;;
10767;SDS011;5436;51.162;4.162;2022-08-24T11:38:06;3.03;;;1.60;;
10767;SDS011;5436;51.162;4.162;2022-08-24T11:40:43;1.95;;;1.75;;
10767;SDS011;5436;51.162;4.162;2022-08-24T11:43:23;5.45;;;1.70;;
10767;SDS011;5436;51.162;4.162;2022-08-24T11:46:06;2.70;;;1.60;;
10767;SDS011;5436;51.162;4.162;2022-08-24T11:48:45;2.30;;;1.85;;
10767;SDS011;5436;51.162;4.162;2022-08-24T11:51:26;3.25;;;1.70;;
10767;SDS011;5436;51.162;4.162;2022-08-24T11:54:07;2.33;;;1.70;;
10767;SDS011;5436;51.162;4.162;2022-08-24T11:56:44;1.70;;;1.60;;
10767;SDS011;5436;51.162;4.162;2022-08-24T11:59:30;3.25;;;1.60;;
10767;SDS011;5436;51.162;4.162;2022-08-24T12:02:09;1.88;;;1.20;;
10767;SDS011;5436;51.162;4.162;2022-08-24T12:04:45;1.27;;;1.17;;
10767;SDS011;5436;51.162;4.162;2022-08-24T12:07:24;1.40;;;1.30;;
10767;SDS011;5436;51.162;4.162;2022-08-24T12:10:04;3.97;;;1.30;;
10767;SDS011;5436;51.162;4.162;2022-08-24T12:12:42;2.80;;;1.65;;
10767;SDS011;5436;51.162;4.162;2022-08-24T12:15:23;3.28;;;1.80;;
10767;SDS011;5436;51.162;4.162;2022-08-24T12:18:03;1.80;;;1.60;;
10767;SDS011;5436;51.162;4.162;2022-08-24T12:20:45;2.05;;;1.52;;
10767;SDS011;5436;51.162;4.162;2022-08-24T12:23:16;3.40;;;1.70;;
10767;SDS011;5436;51.162;4.162;2022-08-24T12:25:56;2.80;;;1.92;;
10767;SDS011;5436;51.162;4.162;2022-08-24T12:28:31;4.82;;;1.67;;
10767;SDS011;5436;51.162;4.162;2022-08-24T12:31:10;2.85;;;1.40;;
10767;SDS011;5436;51.162;4.162;2022-08-24T12:33:45;1.52;;;1.42;;
10767;SDS011;5436;51.162;4.162;2022-08-24T12:36:24;3.08;;;1.42;;
10767;SDS011;5436;51.162;4.162;2022-08-24T12:41:48;1.58;;;1.40;;
10767;SDS011;5436;51.162;4.162;2022-08-24T12:44:37;2.38;;;1.27;;
10767;SDS011;5436;51.162;4.162;2022-08-24T12:47:14;1.40;;;1.30;;
10767;SDS011;5436;51.162;4.162;2022-08-24T12:49:56;2.20;;;1.40;;
10767;SDS011;5436;51.162;4.162;2022-08-24T12:52:42;4.32;;;1.90;;
10767;SDS011;5436;51.162;4.162;2022-08-24T12:55:43;1.65;;;1.33;;
10767;SDS011;5436;51.162;4.162;2022-08-24T12:58:34;1.52;;;1.40;;
10767;SDS011;5436;51.162;4.162;2022-08-24T13:01:24;1.48;;;1.38;;
10767;SDS011;5436;51.162;4.162;2022-08-24T13:04:04;1.40;;;1.30;;
10767;SDS011;5436;51.162;4.162;2022-08-24T13:06:41;2.80;;;1.30;;
10767;SDS011;5436;51.162;4.162;2022-08-24T13:09:16;2.50;;;1.25;;
10767;SDS011;5436;51.162;4.162;2022-08-24T13:11:56;1.20;;;1.10;;
10767;SDS011;5436;51.162;4.162;2022-08-24T13:14:27;1.98;;;1.17;;
10767;SDS011;5436;51.162;4.162;2022-08-24T13:17:07;2.88;;;1.27;;
10767;SDS011;5436;51.162;4.162;2022-08-24T13:19:43;1.00;;;1.00;;
10767;SDS011;5436;51.162;4.162;2022-08-24T13:25:24;1.30;;;1.20;;
10767;SDS011;5436;51.162;4.162;2022-08-24T13:31:11;0.90;;;0.90;;
10767;SDS011;5436;51.162;4.162;2022-08-24T13:33:46;2.50;;;1.15;;
10767;SDS011;5436;51.162;4.162;2022-08-24T13:39:51;3.28;;;1.40;;
10767;SDS011;5436;51.162;4.162;2022-08-24T13:42:40;1.40;;;1.30;;
10767;SDS011;5436;51.162;4.162;2022-08-24T13:45:33;3.00;;;1.10;;
10767;SDS011;5436;51.162;4.162;2022-08-24T13:48:22;4.60;;;1.00;;
10767;SDS011;5436;51.162;4.162;2022-08-24T13:51:10;2.00;;;1.30;;
10767;SDS011;5436;51.162;4.162;2022-08-24T13:53:57;1.63;;;1.13;;
10767;SDS011;5436;51.162;4.162;2022-08-24T13:56:55;2.83;;;1.20;;
10767;SDS011;5436;51.162;4.162;2022-08-24T13:59:35;1.70;;;1.00;;
10767;SDS011;5436;51.162;4.162;2022-08-24T14:02:35;1.90;;;1.20;;
10767;SDS011;5436;51.162;4.162;2022-08-24T14:05:12;1.50;;;1.15;;
10767;SDS011;5436;51.162;4.162;2022-08-24T14:07:54;1.50;;;1.30;;
10767;SDS011;5436;51.162;4.162;2022-08-24T14:10:37;1.55;;;1.20;;
10767;SDS011;5436;51.162;4.162;2022-08-24T14:13:23;2.20;;;1.00;;
10767;SDS011;5436;51.162;4.162;2022-08-24T14:16:03;1.17;;;1.08;;
10767;SDS011;5436;51.162;4.162;2022-08-24T14:21:33;1.30;;;1.20;;
10767;SDS011;5436;51.162;4.162;2022-08-24T14:24:08;1.65;;;0.98;;
10767;SDS011;5436;51.162;4.162;2022-08-24T14:37:20;1.73;;;1.30;;
10767;SDS011;5436;51.162;4.162;2022-08-24T15:10:19;1.55;;;1.42;;
10767;SDS011;5436;51.162;4.162;2022-08-24T16:33:38;3.95;;;1.90;;
10767;SDS011;5436;51.162;4.162;2022-08-24T17:03:30;2.88;;;2.20;;
10767;SDS011;5436;51.162;4.162;2022-08-24T17:43:26;25.48;;;14.25;;
10767;SDS011;5436;51.162;4.162;2022-08-24T17:45:55;20.50;;;15.30;;
10767;SDS011;5436;51.162;4.162;2022-08-24T17:48:25;10.18;;;6.97;;
10767;SDS011;5436;51.162;4.162;2022-08-24T17:50:55;8.35;;;3.65;;
10767;SDS011;5436;51.162;4.162;2022-08-24T17:53:24;8.50;;;7.47;;
10767;SDS011;5436;51.162;4.162;2022-08-24T17:55:53;7.45;;;3.70;;
10767;SDS011;5436;51.162;4.162;2022-08-24T17:58:22;4.53;;;3.42;;
10767;SDS011;5436;51.162;4.162;2022-08-24T18:00:53;6.85;;;5.90;;
10767;SDS011;5436;51.162;4.162;2022-08-24T18:03:22;14.75;;;11.02;;
10767;SDS011;5436;51.162;4.162;2022-08-24T18:05:51;8.95;;;7.22;;
10767;SDS011;5436;51.162;4.162;2022-08-24T18:08:20;10.88;;;7.88;;
10767;SDS011;5436;51.162;4.162;2022-08-24T18:10:49;10.93;;;8.02;;
10767;SDS011;5436;51.162;4.162;2022-08-24T18:13:18;5.00;;;4.35;;
10767;SDS011;5436;51.162;4.162;2022-08-24T18:15:47;4.15;;;3.10;;
10767;SDS011;5436;51.162;4.162;2022-08-24T18:18:19;5.10;;;3.13;;
10767;SDS011;5436;51.162;4.162;2022-08-24T18:20:48;7.00;;;2.78;;
10767;SDS011;5436;51.162;4.162;2022-08-24T18:23:17;3.67;;;2.20;;
10767;SDS011;5436;51.162;4.162;2022-08-24T18:25:47;6.88;;;2.40;;
10767;SDS011;5436;51.162;4.162;2022-08-24T18:28:18;2.70;;;2.40;;
10767;SDS011;5436;51.162;4.162;2022-08-24T18:30:49;5.47;;;2.05;;
10767;SDS011;5436;51.162;4.162;2022-08-24T18:33:20;3.90;;;2.60;;
10767;SDS011;5436;51.162;4.162;2022-08-24T18:35:49;5.18;;;2.78;;
10767;SDS011;5436;51.162;4.162;2022-08-24T18:38:18;3.55;;;2.70;;
10767;SDS011;5436;51.162;4.162;2022-08-24T18:40:51;3.50;;;2.80;;
10767;SDS011;5436;51.162;4.162;2022-08-24T18:43:20;4.15;;;2.70;;
10767;SDS011;5436;51.162;4.162;2022-08-24T18:45:51;3.42;;;2.55;;
10767;SDS011;5436;51.162;4.162;2022-08-24T18:48:23;4.53;;;2.75;;
10767;SDS011;5436;51.162;4.162;2022-08-24T18:50:51;3.53;;;2.50;;
10767;SDS011;5436;51.162;4.162;2022-08-24T18:53:21;5.18;;;2.70;;
10767;SDS011;5436;51.162;4.162;2022-08-24T18:55:52;5.00;;;3.00;;
10767;SDS011;5436;51.162;4.162;2022-08-24T18:58:21;4.47;;;2.45;;
10767;SDS011;5436;51.162;4.162;2022-08-24T19:00:50;3.03;;;2.83;;
10767;SDS011;5436;51.162;4.162;2022-08-24T19:03:19;4.43;;;2.65;;
10767;SDS011;5436;51.162;4.162;2022-08-24T19:05:52;7.78;;;2.55;;
10767;SDS011;5436;51.162;4.162;2022-08-24T19:08:22;4.20;;;2.90;;
10767;SDS011;5436;51.162;4.162;2022-08-24T19:10:50;5.78;;;2.90;;
10767;SDS011;5436;51.162;4.162;2022-08-24T19:13:20;4.40;;;3.08;;
10767;SDS011;5436;51.162;4.162;2022-08-24T19:15:50;3.88;;;2.75;;
10767;SDS011;5436;51.162;4.162;2022-08-24T19:18:19;2.95;;;2.65;;
10767;SDS011;5436;51.162;4.162;2022-08-24T19:20:53;5.53;;;3.10;;
10767;SDS011;5436;51.162;4.162;2022-08-24T19:23:25;3.28;;;2.45;;
10767;SDS011;5436;51.162;4.162;2022-08-24T19:25:56;3.23;;;2.90;;
10767;SDS011;5436;51.162;4.162;2022-08-24T19:28:26;3.08;;;2.70;;
10767;SDS011;5436;51.162;4.162;2022-08-24T19:30:55;4.78;;;3.10;;
10767;SDS011;5436;51.162;4.162;2022-08-24T19:33:31;5.03;;;2.90;;
10767;SDS011;5436;51.162;4.162;2022-08-24T19:36:05;4.00;;;2.75;;
10767;SDS011;5436;51.162;4.162;2022-08-24T19:38:35;2.85;;;2.55;;
10767;SDS011;5436;51.162;4.162;2022-08-24T19:41:04;5.43;;;2.60;;
10767;SDS011;5436;51.162;4.162;2022-08-24T19:43:34;4.20;;;2.80;;